Time;durP1;ratioP1;P1;durP2;ratioP2;P2;SDS_P1;SDS_P2;PMS_P1;PMS_P2;Temp;Humidity;BMP_temperature;BMP_pressure;BME280_temperature;BME280_humidity;BME280_pressure;Samples;Min_cycle;Max_cycle;Signal;HPM_P1;HPM_P2
2024/01/24 00:01:38;;;;;;;20.20;6.90;;;;;;;4.04;79.07;100706.86;129895;1267;106710;-80
2024/01/24 00:04:43;;;;;;;19.40;7.60;;;;;;;4.07;78.96;100707.23;129841;1263;107686;-79
2024/01/24 00:07:49;;;;;;;14.90;6.80;;;;;;;4.08;79.06;100696.27;129648;1270;106773;-79
2024/01/24 00:10:54;;;;;;;14.80;7.10;;;;;;;4.06;78.87;100692.14;129644;1265;106765;-79
2024/01/24 00:14:00;;;;;;;16.40;7.30;;;;;;;4.03;78.88;100701.48;129686;1264;106929;-79
2024/01/24 00:17:06;;;;;;;16.80;7.40;;;;;;;3.99;78.89;100709.52;129636;1270;107752;-80
2024/01/24 00:20:13;;;;;;;15.90;6.70;;;;;;;3.92;78.90;100706.40;129630;1264;107742;-80
2024/01/24 00:23:19;;;;;;;19.40;7.60;;;;;;;3.87;79.05;100705.17;129727;1270;106290;-77
2024/01/24 00:26:24;;;;;;;15.60;7.20;;;;;;;3.80;79.04;100691.56;129666;1270;106700;-79
2024/01/24 00:29:30;;;;;;;18.80;7.80;;;;;;;3.72;78.98;100683.44;129660;1269;108903;-78
2024/01/24 00:32:35;;;;;;;16.80;7.00;;;;;;;3.64;79.03;100695.04;129648;1264;108758;-79
2024/01/24 00:35:41;;;;;;;20.70;7.10;;;;;;;3.60;79.09;100681.03;129657;1271;106587;-79
2024/01/24 00:38:46;;;;;;;18.30;6.40;;;;;;;3.60;79.17;100678.08;129665;1265;106352;-79
2024/01/24 00:41:53;;;;;;;14.90;6.20;;;;;;;3.61;79.23;100674.80;129679;1270;107733;-80
2024/01/24 00:44:58;;;;;;;19.50;7.20;;;;;;;3.63;79.05;100674.13;129653;1264;106335;-78
2024/01/24 00:48:05;;;;;;;19.70;6.70;;;;;;;3.64;79.01;100681.31;129650;1264;108112;-78
2024/01/24 00:51:10;;;;;;;14.70;6.30;;;;;;;3.64;79.00;100677.45;129646;1265;106998;-79
2024/01/24 00:54:16;;;;;;;14.90;6.20;;;;;;;3.64;78.94;100672.02;129680;1264;106682;-79
2024/01/24 00:57:21;;;;;;;16.10;6.00;;;;;;;3.60;79.03;100667.86;129643;1270;109140;-79
2024/01/24 01:00:27;;;;;;;16.20;6.60;;;;;;;3.58;79.20;100662.37;129687;1269;106927;-79
2024/01/24 01:03:33;;;;;;;12.80;6.40;;;;;;;3.54;79.03;100657.83;129673;1270;108733;-79
2024/01/24 01:06:39;;;;;;;19.20;6.10;;;;;;;3.52;79.18;100637.58;129945;1265;108675;-78
2024/01/24 01:09:45;;;;;;;14.50;6.20;;;;;;;3.48;79.10;100628.16;129939;1267;108712;-79
2024/01/24 01:12:50;;;;;;;14.50;5.40;;;;;;;3.45;79.26;100611.10;129912;1267;108652;-79
2024/01/24 01:15:56;;;;;;;14.20;5.40;;;;;;;3.47;79.34;100597.98;129930;1265;107689;-79
2024/01/24 01:19:01;;;;;;;13.90;6.00;;;;;;;3.53;79.30;100575.92;129907;1267;106504;-78
2024/01/24 01:22:07;;;;;;;14.20;6.30;;;;;;;3.59;79.27;100558.54;129956;1264;107692;-79
2024/01/24 01:25:13;;;;;;;14.00;5.80;;;;;;;3.60;79.10;100546.11;129964;1264;107860;-79
2024/01/24 01:28:18;;;;;;;18.10;6.50;;;;;;;3.62;79.12;100541.08;129901;1264;108659;-78
2024/01/24 01:31:24;;;;;;;14.50;6.10;;;;;;;3.62;79.05;100528.41;129893;1267;107701;-78
2024/01/24 01:34:29;;;;;;;14.90;6.10;;;;;;;3.60;79.00;100520.24;129899;1268;107718;-79
2024/01/24 01:37:35;;;;;;;13.70;5.90;;;;;;;3.57;79.09;100509.39;129999;1267;107533;-78
2024/01/24 01:40:41;;;;;;;16.30;5.80;;;;;;;3.52;78.83;100496.50;130023;1267;108676;-78
2024/01/24 01:43:47;;;;;;;11.00;5.70;;;;;;;3.46;78.92;100499.38;129896;1267;107084;-79
2024/01/24 01:46:52;;;;;;;14.10;6.20;;;;;;;3.39;78.89;100510.59;130131;1264;108608;-79
2024/01/24 01:49:58;;;;;;;19.40;5.90;;;;;;;3.30;78.98;100505.36;130110;1267;107648;-79
2024/01/24 01:53:06;;;;;;;15.70;5.70;;;;;;;3.24;78.90;100500.13;130134;1264;107794;-78
2024/01/24 01:56:13;;;;;;;13.50;5.00;;;;;;;3.20;79.01;100494.58;129940;1267;108778;-79
2024/01/24 01:59:19;;;;;;;12.50;5.50;;;;;;;3.21;79.04;100475.84;129917;1264;107942;-78
2024/01/24 02:02:25;;;;;;;14.10;5.80;;;;;;;3.27;79.08;100465.96;129948;1267;107046;-79
2024/01/24 02:05:30;;;;;;;11.80;5.90;;;;;;;3.30;78.79;100467.50;130202;1267;107555;-78
2024/01/24 02:08:36;;;;;;;14.10;5.50;;;;;;;3.30;78.75;100459.80;129922;1267;108646;-80
2024/01/24 02:11:42;;;;;;;13.90;5.80;;;;;;;3.26;78.84;100451.94;130099;1267;108184;-79
2024/01/24 02:14:48;;;;;;;14.60;6.50;;;;;;;3.24;78.55;100445.41;130143;1267;108688;-79
2024/01/24 02:17:54;;;;;;;11.40;5.50;;;;;;;3.21;78.74;100439.14;130092;1264;107591;-79
2024/01/24 02:21:01;;;;;;;14.50;5.40;;;;;;;3.18;78.66;100433.71;130135;1267;108108;-79
2024/01/24 02:24:11;;;;;;;17.00;6.10;;;;;;;3.13;78.64;100417.67;129999;1265;107387;-79
2024/01/24 02:27:16;;;;;;;12.60;5.70;;;;;;;3.07;78.69;100401.54;129977;1267;107663;-79
2024/01/24 02:30:22;;;;;;;15.00;6.10;;;;;;;3.02;78.57;100390.27;129904;1265;108708;-78
2024/01/24 02:33:27;;;;;;;14.70;5.60;;;;;;;2.95;78.47;100388.12;129970;1265;108556;-79
2024/01/24 02:36:33;;;;;;;13.00;4.80;;;;;;;2.90;78.57;100388.81;129925;1267;107644;-79
2024/01/24 02:39:38;;;;;;;13.10;5.10;;;;;;;2.87;78.67;100386.14;129831;1264;107669;-79
2024/01/24 02:42:44;;;;;;;16.40;4.80;;;;;;;2.92;78.71;100382.15;129882;1267;108739;-79
2024/01/24 02:45:50;;;;;;;13.50;5.30;;;;;;;2.98;78.61;100358.76;129839;1267;107639;-78
2024/01/24 02:48:55;;;;;;;13.30;5.40;;;;;;;3.01;78.64;100335.86;129924;1265;107667;-78
2024/01/24 02:52:02;;;;;;;11.40;5.10;;;;;;;3.03;78.49;100326.61;129987;1263;108509;-80
2024/01/24 02:55:13;;;;;;;12.10;4.70;;;;;;;3.02;78.50;100322.98;129945;1264;107507;-79
2024/01/24 02:58:19;;;;;;;11.50;5.00;;;;;;;2.98;78.40;100328.14;129924;1264;108701;-78
2024/01/24 03:01:24;;;;;;;15.10;5.40;;;;;;;2.98;78.49;100318.52;129927;1271;107663;-78
2024/01/24 03:04:30;;;;;;;16.90;6.00;;;;;;;2.98;78.39;100298.30;129884;1267;106349;-79
2024/01/24 03:07:35;;;;;;;12.50;5.70;;;;;;;2.98;78.62;100295.14;129962;1267;108580;-78
2024/01/24 03:10:41;;;;;;;12.50;5.50;;;;;;;2.95;78.61;100277.36;129933;1280;107678;-79
2024/01/24 03:13:47;;;;;;;16.70;6.00;;;;;;;2.91;78.54;100256.57;129934;1264;106786;-79
2024/01/24 03:16:53;;;;;;;14.80;6.00;;;;;;;2.89;78.65;100244.42;129915;1267;108489;-78
2024/01/24 03:19:59;;;;;;;8.30;4.30;;;;;;;2.90;78.65;100228.55;129795;1267;108718;-78
2024/01/24 03:23:05;;;;;;;13.80;5.30;;;;;;;2.95;78.73;100226.24;129910;1267;107455;-79
2024/01/24 03:26:13;;;;;;;13.30;5.30;;;;;;;3.02;78.62;100222.10;129933;1265;106824;-79
2024/01/24 03:29:19;;;;;;;12.90;5.40;;;;;;;3.07;78.53;100220.16;129931;1267;107725;-79
2024/01/24 03:32:25;;;;;;;12.00;4.90;;;;;;;3.09;78.45;100223.32;129917;1264;107568;-79
2024/01/24 03:35:30;;;;;;;11.00;5.10;;;;;;;3.11;78.33;100207.07;129913;1265;107473;-77
2024/01/24 03:38:36;;;;;;;13.00;6.20;;;;;;;3.10;78.32;100208.92;129964;1267;105950;-80
2024/01/24 03:41:42;;;;;;;13.40;5.90;;;;;;;3.06;78.35;100201.98;130229;1267;106750;-79
2024/01/24 03:44:47;;;;;;;43.10;16.30;;;;;;;3.02;78.27;100197.69;129933;1265;107292;-80
2024/01/24 03:47:53;;;;;;;24.90;9.90;;;;;;;3.00;78.36;100180.93;130104;1267;105806;-81
2024/01/24 03:50:59;;;;;;;15.70;5.80;;;;;;;2.99;78.39;100174.36;130234;1267;108701;-82
2024/01/24 03:54:04;;;;;;;13.80;5.70;;;;;;;2.98;78.28;100166.66;130190;1265;108374;-82
2024/01/24 03:57:10;;;;;;;14.20;5.10;;;;;;;3.00;78.46;100154.23;130433;1266;108774;-82
2024/01/24 04:00:17;;;;;;;14.90;5.30;;;;;;;3.06;78.31;100160.48;130310;1267;106534;-82
2024/01/24 04:03:23;;;;;;;32.90;14.10;;;;;;;3.16;78.21;100156.08;130060;1268;108684;-82
2024/01/24 04:06:28;;;;;;;22.60;9.30;;;;;;;3.25;78.11;100145.26;130146;1267;106642;-82
2024/01/24 04:09:34;;;;;;;30.60;14.80;;;;;;;3.31;77.97;100118.83;130039;1267;107784;-82
2024/01/24 04:12:39;;;;;;;22.00;9.30;;;;;;;3.36;77.93;100099.64;129998;1268;108714;-82
2024/01/24 04:15:45;;;;;;;23.20;10.30;;;;;;;3.39;77.95;100088.02;130084;1264;108518;-82
2024/01/24 04:18:51;;;;;;;24.00;11.90;;;;;;;3.39;77.75;100082.91;129926;1267;107725;-80
2024/01/24 04:21:57;;;;;;;22.40;9.20;;;;;;;3.38;77.65;100081.21;129907;1267;108485;-81
2024/01/24 04:25:02;;;;;;;16.50;7.20;;;;;;;3.35;77.66;100066.47;129998;1265;106247;-81
2024/01/24 04:28:09;;;;;;;33.50;13.10;;;;;;;3.32;77.62;100052.77;129957;1264;108658;-81
2024/01/24 04:31:14;;;;;;;35.10;13.50;;;;;;;3.30;77.67;100051.89;130000;1267;106677;-82
2024/01/24 04:34:20;;;;;;;38.50;14.30;;;;;;;3.28;77.71;100051.38;129923;1267;106728;-81
2024/01/24 04:37:25;;;;;;;62.50;20.30;;;;;;;3.25;77.72;100031.36;130174;1267;107283;-82
2024/01/24 04:40:31;;;;;;;82.70;26.80;;;;;;;3.27;77.85;100022.28;130102;1267;106979;-81
2024/01/24 04:43:37;;;;;;;44.20;18.30;;;;;;;3.30;77.81;100012.86;130123;1267;106929;-82
2024/01/24 04:46:42;;;;;;;213.20;72.50;;;;;;;3.36;77.56;99991.70;130154;1267;108445;-81
2024/01/24 04:49:48;;;;;;;342.80;126.40;;;;;;;3.41;77.51;99985.20;130075;1267;106539;-81
2024/01/24 04:52:54;;;;;;;78.90;26.90;;;;;;;3.44;77.38;99990.06;130081;1264;106449;-83
2024/01/24 04:56:00;;;;;;;58.70;20.40;;;;;;;3.46;77.31;99983.39;130152;1267;107796;-82
2024/01/24 04:59:06;;;;;;;49.30;19.70;;;;;;;3.49;77.43;99986.88;130151;1267;108789;-81
2024/01/24 05:02:11;;;;;;;167.10;61.50;;;;;;;3.48;77.34;99982.89;130123;1267;106285;-82
2024/01/24 05:05:17;;;;;;;29.00;11.40;;;;;;;3.45;77.54;99979.06;130025;1264;107768;-82
2024/01/24 05:08:23;;;;;;;94.40;35.20;;;;;;;3.44;77.47;99974.27;130149;1265;107797;-82
2024/01/24 05:11:28;;;;;;;173.00;57.10;;;;;;;3.41;77.40;99973.72;130085;1267;107031;-82
2024/01/24 05:14:34;;;;;;;50.60;15.90;;;;;;;3.40;77.58;99978.52;130049;1267;106763;-82
2024/01/24 05:17:41;;;;;;;143.70;41.90;;;;;;;3.40;77.76;99989.98;129912;1267;108791;-82
2024/01/24 05:20:47;;;;;;;161.40;48.60;;;;;;;3.41;77.89;99980.59;130130;1268;107090;-81
2024/01/24 05:23:53;;;;;;;48.20;17.10;;;;;;;3.45;78.01;99980.63;130132;1271;107995;-80
2024/01/24 05:26:59;;;;;;;36.50;14.70;;;;;;;3.52;78.10;99959.70;129994;1264;108652;-80
2024/01/24 05:30:06;;;;;;;36.10;14.60;;;;;;;3.59;78.21;99938.44;130024;1267;109246;-82
2024/01/24 05:33:11;;;;;;;47.80;18.60;;;;;;;3.63;78.45;99923.20;130016;1267;107046;-82
2024/01/24 05:36:17;;;;;;;32.80;14.50;;;;;;;3.65;78.76;99910.06;130036;1265;108366;-80
2024/01/24 05:40:06;;;;;;;;;;;;;;;;;;;;;
2024/01/24 05:43:17;;;;;;;22.80;9.50;;;;;;;3.60;79.25;99890.59;129876;1264;108563;-81
2024/01/24 05:46:23;;;;;;;16.50;6.80;;;;;;;3.55;79.57;99873.54;130347;1264;107807;-81
2024/01/24 05:49:28;;;;;;;55.50;36.60;;;;;;;3.50;79.86;99873.56;130187;1267;106400;-82
2024/01/24 05:52:34;;;;;;;16.30;6.60;;;;;;;3.46;79.99;99861.74;130137;1264;107388;-83
2024/01/24 05:55:39;;;;;;;14.10;6.50;;;;;;;3.44;80.24;99840.76;130139;1264;108508;-82
2024/01/24 05:58:45;;;;;;;12.60;6.30;;;;;;;3.44;80.37;99832.27;130250;1267;106504;-82
2024/01/24 06:01:53;;;;;;;13.00;5.40;;;;;;;3.48;80.65;99814.56;130196;1267;107843;-81
2024/01/24 06:05:15;;;;;;;37.30;25.60;;;;;;;3.51;80.63;99805.23;130016;1264;107736;-83
2024/01/24 06:08:20;;;;;;;12.80;6.50;;;;;;;3.53;80.74;99792.60;130135;1267;106425;-80
2024/01/24 06:11:26;;;;;;;13.90;6.50;;;;;;;3.50;80.77;99790.36;130042;1267;106307;-83
2024/01/24 06:14:32;;;;;;;16.70;8.60;;;;;;;3.46;81.02;99777.83;130259;1264;108159;-83
2024/01/24 06:17:37;;;;;;;12.30;6.10;;;;;;;3.42;81.26;99769.88;130289;1271;107801;-82
2024/01/24 06:20:43;;;;;;;14.10;6.70;;;;;;;3.37;81.43;99767.64;130222;1264;105530;-82
2024/01/24 06:23:49;;;;;;;16.90;6.30;;;;;;;3.38;81.74;99760.17;130240;1264;107549;-82
2024/01/24 06:26:55;;;;;;;48.70;21.50;;;;;;;3.39;81.84;99746.23;130219;1275;107704;-83
2024/01/24 06:30:00;;;;;;;29.00;13.30;;;;;;;3.39;81.90;99736.58;130308;1266;107811;-82
2024/01/24 06:33:06;;;;;;;81.50;34.80;;;;;;;3.38;82.06;99733.45;130191;1267;108699;-82
2024/01/24 06:36:12;;;;;;;19.50;9.00;;;;;;;3.37;81.87;99722.81;130209;1267;107687;-81
2024/01/24 06:39:18;;;;;;;24.60;10.80;;;;;;;3.36;82.17;99704.25;130120;1267;106631;-82
2024/01/24 06:42:23;;;;;;;56.60;22.30;;;;;;;3.33;82.08;99705.55;130160;1267;108552;-82
2024/01/24 06:45:29;;;;;;;12.80;6.00;;;;;;;3.32;82.47;99689.60;130126;1263;108919;-83
2024/01/24 06:48:34;;;;;;;22.00;9.00;;;;;;;3.31;82.70;99668.77;130152;1269;106576;-82
2024/01/24 06:51:40;;;;;;;85.90;33.70;;;;;;;3.32;82.99;99643.06;130130;1268;108587;-83
2024/01/24 06:54:45;;;;;;;15.70;6.30;;;;;;;3.33;83.23;99625.58;130159;1267;106676;-83
2024/01/24 06:57:51;;;;;;;24.20;11.30;;;;;;;3.35;83.19;99607.80;130123;1268;108621;-83
2024/01/24 07:00:57;;;;;;;16.50;7.30;;;;;;;3.36;83.03;99587.02;130162;1267;106624;-83
2024/01/24 07:04:02;;;;;;;20.30;9.50;;;;;;;3.34;83.55;99575.37;130161;1267;107229;-83
2024/01/24 07:07:08;;;;;;;18.40;8.10;;;;;;;3.32;83.80;99566.53;129900;1270;106923;-81
2024/01/24 07:10:14;;;;;;;19.70;8.20;;;;;;;3.34;83.90;99547.73;129886;1270;108710;-83
2024/01/24 07:13:20;;;;;;;15.10;5.70;;;;;;;3.40;84.25;99537.44;129892;1270;108768;-83
2024/01/24 07:16:25;;;;;;;37.50;21.60;;;;;;;3.42;84.20;99538.46;129912;1266;107643;-82
2024/01/24 07:19:31;;;;;;;16.80;8.90;;;;;;;3.48;83.99;99538.02;129871;1270;107673;-80
2024/01/24 07:22:38;;;;;;;17.80;8.80;;;;;;;3.51;84.21;99528.75;129880;1264;107619;-83
2024/01/24 07:25:44;;;;;;;13.50;5.90;;;;;;;3.53;84.20;99515.60;129864;1271;108580;-85
2024/01/24 07:28:49;;;;;;;14.40;6.20;;;;;;;3.53;84.86;99512.06;129803;1269;106997;-84
2024/01/24 07:31:55;;;;;;;13.70;6.50;;;;;;;3.57;84.94;99504.05;129887;1270;107029;-84
2024/01/24 07:35:01;;;;;;;13.20;6.80;;;;;;;3.61;85.40;99502.33;129909;1271;108699;-81
2024/01/24 07:38:07;;;;;;;13.90;6.20;;;;;;;3.65;85.64;99483.86;129909;1269;107285;-80
2024/01/24 07:41:12;;;;;;;14.30;8.40;;;;;;;3.66;85.86;99458.67;129869;1270;108405;-81
2024/01/24 07:44:18;;;;;;;20.60;9.40;;;;;;;3.66;85.68;99452.61;129893;1269;107643;-81
2024/01/24 07:47:24;;;;;;;12.40;6.00;;;;;;;3.69;85.79;99439.94;129845;1269;107223;-81
2024/01/24 07:50:31;;;;;;;11.90;5.60;;;;;;;3.72;86.33;99427.00;129859;1270;106535;-81
2024/01/24 07:53:38;;;;;;;11.40;5.70;;;;;;;3.76;86.38;99410.08;129949;1264;106571;-81
2024/01/24 07:56:44;;;;;;;12.50;6.50;;;;;;;3.82;86.24;99407.99;129996;1271;108041;-81
2024/01/24 07:59:49;;;;;;;13.00;5.70;;;;;;;3.85;86.50;99395.42;129909;1267;108664;-82
2024/01/24 08:02:55;;;;;;;9.10;5.30;;;;;;;3.84;86.87;99387.77;130022;1269;107663;-81
2024/01/24 08:06:00;;;;;;;10.50;5.80;;;;;;;3.83;86.62;99382.23;129869;1273;108620;-82
2024/01/24 08:09:06;;;;;;;9.70;5.10;;;;;;;3.85;86.97;99381.88;130032;1270;106835;-80
2024/01/24 08:12:12;;;;;;;10.40;5.00;;;;;;;3.91;87.20;99369.79;130165;1268;108211;-81
2024/01/24 08:15:18;;;;;;;30.80;15.90;;;;;;;3.93;87.50;99355.54;130168;1270;106871;-81
2024/01/24 08:18:24;;;;;;;19.10;9.70;;;;;;;3.94;87.65;99350.35;130150;1268;108523;-81
2024/01/24 08:21:30;;;;;;;12.90;6.40;;;;;;;3.94;87.45;99339.27;130119;1267;106264;-81
2024/01/24 08:24:35;;;;;;;37.90;14.50;;;;;;;3.96;87.69;99322.71;130150;1269;106957;-81
2024/01/24 08:27:41;;;;;;;243.50;76.80;;;;;;;3.99;88.08;99316.84;130123;1267;107718;-81
2024/01/24 08:30:46;;;;;;;515.50;191.60;;;;;;;4.02;87.94;99315.84;130140;1264;108680;-81
2024/01/24 08:33:52;;;;;;;261.50;84.00;;;;;;;4.05;88.02;99311.70;129964;1270;108721;-80
2024/01/24 08:36:58;;;;;;;121.60;36.50;;;;;;;4.08;87.73;99316.04;129868;1270;108734;-81
2024/01/24 08:40:05;;;;;;;203.60;61.80;;;;;;;4.10;87.79;99323.86;129947;1278;107548;-80
2024/01/24 08:43:10;;;;;;;50.40;15.20;;;;;;;4.10;88.39;99322.76;129919;1269;106464;-82
2024/01/24 08:46:16;;;;;;;74.70;25.20;;;;;;;4.13;88.44;99299.55;129885;1270;108185;-81
2024/01/24 08:49:22;;;;;;;112.30;33.90;;;;;;;4.19;88.54;99316.67;129894;1270;107653;-81
2024/01/24 08:52:27;;;;;;;160.40;55.70;;;;;;;4.25;88.22;99307.84;129865;1269;108653;-81
2024/01/24 08:55:33;;;;;;;128.30;44.80;;;;;;;4.32;88.48;99279.77;129924;1277;108671;-82
2024/01/24 08:58:39;;;;;;;39.50;14.50;;;;;;;4.32;88.68;99277.67;129882;1263;108762;-81
2024/01/24 09:01:46;;;;;;;126.60;41.40;;;;;;;4.30;88.71;99283.84;129907;1268;108624;-82
2024/01/24 09:04:52;;;;;;;151.80;48.60;;;;;;;4.34;88.63;99298.27;129897;1269;107500;-82
2024/01/24 09:07:58;;;;;;;112.50;41.50;;;;;;;4.39;88.76;99300.97;129912;1270;107618;-82
2024/01/24 09:11:04;;;;;;;140.80;47.60;;;;;;;4.45;88.80;99281.59;129852;1263;108458;-80
2024/01/24 09:14:09;;;;;;;155.10;53.30;;;;;;;4.51;88.64;99282.33;129869;1270;107858;-82
2024/01/24 09:17:17;;;;;;;211.00;76.20;;;;;;;4.55;88.70;99284.10;129869;1271;108527;-81
2024/01/24 09:20:23;;;;;;;16.40;7.40;;;;;;;4.57;88.88;99277.75;129877;1269;107993;-80
2024/01/24 09:23:28;;;;;;;235.50;92.80;;;;;;;4.61;88.86;99270.14;129904;1268;108818;-79
2024/01/24 09:26:34;;;;;;;472.40;329.20;;;;;;;4.67;89.07;99272.40;129634;1277;107799;-79
2024/01/24 09:29:40;;;;;;;89.30;47.90;;;;;;;4.74;88.78;99255.61;130413;1267;108415;-77
2024/01/24 09:32:46;;;;;;;56.00;34.10;;;;;;;4.79;88.88;99268.91;129893;1268;106275;-78
2024/01/24 09:35:51;;;;;;;18.10;12.70;;;;;;;4.82;88.97;99250.48;129810;1268;108479;-78
2024/01/24 09:38:57;;;;;;;7.80;5.50;;;;;;;4.87;89.15;99245.52;129721;1270;106691;-78
2024/01/24 09:42:05;;;;;;;5.40;3.20;;;;;;;4.93;89.27;99230.37;129681;1271;106455;-79
2024/01/24 09:45:16;;;;;;;5.70;3.70;;;;;;;4.97;89.68;99210.47;129884;1276;108296;-78
2024/01/24 09:48:22;;;;;;;3.60;2.60;;;;;;;5.03;89.60;99233.33;129724;1270;108643;-78
2024/01/24 09:51:28;;;;;;;4.90;2.70;;;;;;;5.09;89.63;99232.25;129700;1270;106374;-81
2024/01/24 09:54:35;;;;;;;3.20;2.10;;;;;;;5.14;89.79;99219.83;129948;1269;108982;-81
2024/01/24 09:57:41;;;;;;;3.00;2.00;;;;;;;5.24;89.79;99210.80;130094;1270;107591;-82
2024/01/24 10:00:47;;;;;;;4.50;2.60;;;;;;;5.34;90.16;99209.64;129978;1264;107045;-83
2024/01/24 10:03:54;;;;;;;3.80;2.20;;;;;;;5.44;90.44;99210.79;129931;1271;108793;-83
2024/01/24 10:07:00;;;;;;;2.50;1.70;;;;;;;5.57;90.30;99196.38;130019;1270;107657;-83
2024/01/24 10:10:12;;;;;;;2.90;2.10;;;;;;;5.66;90.20;99192.17;130014;1264;108810;-84
2024/01/24 10:13:18;;;;;;;3.40;2.10;;;;;;;5.68;90.10;99197.27;129959;1277;107814;-83
2024/01/24 10:16:24;;;;;;;3.30;2.00;;;;;;;5.70;90.07;99196.02;129956;1270;107964;-83
2024/01/24 10:19:29;;;;;;;3.50;2.10;;;;;;;5.78;90.10;99192.36;129938;1271;106821;-83
2024/01/24 10:22:35;;;;;;;4.60;3.20;;;;;;;5.90;90.57;99183.44;129943;1264;108716;-84
2024/01/24 10:25:42;;;;;;;4.00;2.80;;;;;;;6.04;90.62;99175.61;129945;1270;106685;-84
2024/01/24 10:28:49;;;;;;;4.30;3.00;;;;;;;6.17;90.63;99167.33;130018;1270;107876;-84
2024/01/24 10:31:58;;;;;;;3.70;2.30;;;;;;;6.25;90.46;99162.54;129870;1270;109019;-84
2024/01/24 10:35:08;;;;;;;3.20;2.20;;;;;;;6.35;90.44;99155.42;129918;1269;108811;-84
2024/01/24 10:38:16;;;;;;;4.30;2.70;;;;;;;6.51;90.78;99158.08;129940;1263;107788;-82
2024/01/24 10:41:24;;;;;;;4.20;2.80;;;;;;;6.69;91.05;99152.52;129931;1263;108832;-83
2024/01/24 10:44:33;;;;;;;4.60;2.90;;;;;;;6.85;90.99;99151.84;130021;1278;106882;-80
2024/01/24 10:47:40;;;;;;;5.40;3.70;;;;;;;6.96;91.27;99157.92;130044;1264;108592;-81
2024/01/24 10:50:46;;;;;;;3.60;2.20;;;;;;;6.98;91.19;99150.46;129887;1269;106635;-82
2024/01/24 10:53:53;;;;;;;3.80;2.70;;;;;;;7.03;91.58;99143.04;129988;1268;106900;-81
2024/01/24 10:57:00;;;;;;;5.20;2.80;;;;;;;7.18;91.73;99142.31;130093;1264;106923;-82
2024/01/24 11:00:10;;;;;;;4.90;2.80;;;;;;;7.36;91.63;99134.00;129935;1264;106696;-84
2024/01/24 11:03:17;;;;;;;6.50;4.40;;;;;;;7.51;91.63;99132.83;129929;1270;108909;-84
2024/01/24 11:06:28;;;;;;;6.20;3.90;;;;;;;7.56;91.44;99130.89;130198;1267;108586;-79
2024/01/24 11:09:42;;;;;;;6.80;4.10;;;;;;;7.50;92.06;99142.84;130183;1268;108499;-79
2024/01/24 11:12:48;;;;;;;9.90;6.40;;;;;;;7.44;91.62;99136.91;130266;1267;106748;-80
2024/01/24 11:15:55;;;;;;;4.50;3.20;;;;;;;7.40;91.90;99134.25;130116;1264;109482;-80
2024/01/24 11:19:18;;;;;;;5.70;3.70;;;;;;;7.39;92.13;99133.13;130073;1265;108714;-80
2024/01/24 11:22:25;;;;;;;;;;;;;;;7.41;92.06;99131.92;130041;1277;108495;-80
2024/01/24 11:25:41;;;;;;;6.30;4.10;;;;;;;7.42;92.21;99125.96;130160;1263;107211;-80
2024/01/24 11:28:48;;;;;;;4.60;3.00;;;;;;;7.40;92.40;99121.86;130151;1264;107803;-80
2024/01/24 11:31:53;;;;;;;5.30;3.30;;;;;;;7.44;92.42;99115.81;130061;1263;108739;-80
2024/01/24 11:35:29;;;;;;;5.40;2.90;;;;;;;7.51;92.65;99116.20;130033;1264;108967;-78
2024/01/24 11:38:51;;;;;;;4.30;3.10;;;;;;;7.57;92.90;99122.16;130069;1263;107770;-81
2024/01/24 11:42:36;;;;;;;5.60;3.30;;;;;;;7.60;92.56;99120.70;130039;1263;108696;-81
2024/01/24 11:45:45;;;;;;;4.40;2.70;;;;;;;7.69;93.14;99119.47;129739;1268;107578;-80
2024/01/24 11:48:50;;;;;;;6.40;3.70;;;;;;;7.77;92.97;99123.20;129942;1267;107164;-80
2024/01/24 11:52:03;;;;;;;6.00;4.20;;;;;;;7.85;92.91;99113.07;129922;1267;108690;-80
2024/01/24 11:55:10;;;;;;;5.60;3.80;;;;;;;7.98;92.91;99120.89;129996;1268;107615;-80
2024/01/24 11:58:15;;;;;;;7.40;4.00;;;;;;;8.09;92.73;99118.90;130016;1267;108899;-79
2024/01/24 12:01:21;;;;;;;7.30;4.30;;;;;;;8.16;92.70;99118.77;129954;1267;107893;-79
2024/01/24 12:04:26;;;;;;;6.20;4.30;;;;;;;8.23;92.74;99122.65;129675;1270;108752;-79
2024/01/24 12:07:32;;;;;;;4.80;3.30;;;;;;;8.28;92.85;99118.08;129919;1264;108708;-79
2024/01/24 12:10:41;;;;;;;6.10;4.10;;;;;;;8.31;92.96;99121.10;129959;1277;108492;-79
2024/01/24 12:13:47;;;;;;;4.70;3.20;;;;;;;8.40;92.80;99108.65;129916;1270;106509;-79
2024/01/24 12:16:53;;;;;;;6.30;3.80;;;;;;;8.49;92.84;99122.35;129938;1267;107065;-81
2024/01/24 12:20:00;;;;;;;5.70;3.60;;;;;;;8.57;92.88;99106.95;129776;1264;108445;-81
2024/01/24 12:23:07;;;;;;;7.50;4.40;;;;;;;8.58;92.71;99111.27;130072;1269;107827;-81
2024/01/24 12:26:13;;;;;;;5.80;3.30;;;;;;;8.54;92.60;99123.64;130061;1269;106353;-81
2024/01/24 12:29:19;;;;;;;7.40;4.10;;;;;;;8.54;92.51;99124.17;129930;1263;106748;-81
2024/01/24 12:32:24;;;;;;;8.60;4.40;;;;;;;8.64;92.64;99128.88;129999;1271;106886;-81
2024/01/24 12:35:31;;;;;;;9.60;5.20;;;;;;;8.77;92.56;99133.38;130124;1267;107745;-79
2024/01/24 12:38:37;;;;;;;9.00;4.50;;;;;;;8.86;92.16;99130.07;130074;1263;107055;-80
2024/01/24 12:41:44;;;;;;;10.20;5.80;;;;;;;8.84;92.11;99131.34;130021;1270;108538;-80
2024/01/24 12:44:56;;;;;;;53.20;19.90;;;;;;;8.80;91.97;99129.09;129853;1270;108524;-80
2024/01/24 12:48:10;;;;;;;18.50;7.20;;;;;;;8.77;92.05;99124.77;129915;1264;107627;-80
2024/01/24 12:51:15;;;;;;;57.40;24.20;;;;;;;8.76;92.09;99127.27;129983;1269;107807;-80
2024/01/24 12:54:22;;;;;;;112.00;39.80;;;;;;;8.75;92.07;99131.30;129974;1270;108613;-81
2024/01/24 12:57:31;;;;;;;26.50;13.20;;;;;;;8.71;92.30;99127.08;129985;1264;108153;-82
2024/01/24 13:00:37;;;;;;;15.90;8.90;;;;;;;8.71;92.36;99122.79;130180;1267;107788;-81
2024/01/24 13:03:43;;;;;;;16.50;8.20;;;;;;;8.69;92.34;99118.14;130116;1267;108728;-81
2024/01/24 13:06:48;;;;;;;44.70;18.30;;;;;;;8.64;92.50;99111.80;130197;1263;107230;-79
2024/01/24 13:09:54;;;;;;;61.80;29.30;;;;;;;8.68;92.37;99122.50;130174;1267;107368;-80
2024/01/24 13:13:00;;;;;;;136.30;71.10;;;;;;;8.72;92.45;99125.95;130179;1264;108616;-79
2024/01/24 13:16:06;;;;;;;28.20;14.30;;;;;;;8.74;92.22;99113.09;130192;1267;106443;-80
2024/01/24 13:19:12;;;;;;;17.20;10.20;;;;;;;8.72;92.31;99116.73;130125;1267;108570;-80
2024/01/24 13:22:17;;;;;;;16.50;9.80;;;;;;;8.71;92.53;99116.34;130166;1268;108474;-80
2024/01/24 13:25:23;;;;;;;16.40;10.30;;;;;;;8.71;92.62;99109.76;130159;1264;108509;-80
2024/01/24 13:28:28;;;;;;;25.80;16.60;;;;;;;8.79;92.85;99061.84;130002;1264;107080;-80
2024/01/24 13:31:34;;;;;;;15.80;10.20;;;;;;;8.91;92.81;99099.20;129964;1280;106186;-80
2024/01/24 13:34:40;;;;;;;49.80;26.00;;;;;;;8.94;92.79;99102.33;129901;1264;107641;-80
2024/01/24 13:37:46;;;;;;;29.10;17.20;;;;;;;8.95;92.66;99102.48;129836;1270;108757;-79
2024/01/24 13:40:51;;;;;;;12.70;6.80;;;;;;;8.93;92.62;99103.58;130004;1263;109381;-79
2024/01/24 13:43:57;;;;;;;82.70;44.90;;;;;;;8.92;92.60;99102.36;129863;1264;107907;-80
2024/01/24 13:47:03;;;;;;;101.20;47.80;;;;;;;8.91;92.49;99090.48;129886;1264;107879;-79
2024/01/24 13:50:11;;;;;;;64.50;33.90;;;;;;;8.90;92.08;99089.49;129880;1269;106545;-79
2024/01/24 13:53:17;;;;;;;29.50;15.20;;;;;;;8.92;92.05;99098.84;129976;1264;107556;-79
2024/01/24 13:56:22;;;;;;;42.80;25.50;;;;;;;8.90;91.76;99101.98;130018;1270;107761;-79
2024/01/24 13:59:28;;;;;;;33.20;14.40;;;;;;;8.86;91.60;99103.96;129903;1268;108691;-79
2024/01/24 14:02:33;;;;;;;35.00;12.20;;;;;;;8.82;91.07;99101.52;130160;1264;109241;-79
2024/01/24 14:05:39;;;;;;;12.00;5.50;;;;;;;8.80;90.85;99100.02;130187;1266;107709;-80
2024/01/24 14:08:46;;;;;;;32.60;13.60;;;;;;;8.81;90.73;99093.71;130166;1267;107756;-79
2024/01/24 14:11:53;;;;;;;74.70;32.90;;;;;;;8.81;90.21;99091.55;130253;1267;108560;-80
2024/01/24 14:14:58;;;;;;;54.00;30.10;;;;;;;8.81;89.94;99089.50;130169;1265;105811;-80